Time;durP1;ratioP1;P1;durP2;ratioP2;P2;SDS_P1;SDS_P2;PMS_P1;PMS_P2;Temp;Humidity;BMP_temperature;BMP_pressure;BME280_temperature;BME280_humidity;BME280_pressure;Samples;Min_cycle;Max_cycle;Signal;HPM_P1;HPM_P2
2021/05/16 00:00:11;;;;;;;;;;;22.60;43.20;;;;;;1495652;78;1123;-58
2021/05/16 00:02:13;;;;;;;;;;;22.60;43.20;;;;;;1491587;78;661;-58
2021/05/16 00:04:15;;;;;;;;;;;22.70;43.40;;;;;;1480356;78;2061;-57
2021/05/16 00:06:16;;;;;;;;;;;22.70;43.30;;;;;;1485990;78;781;-58
2021/05/16 00:08:18;;;;;;;;;;;22.80;43.30;;;;;;1483772;78;742;-57
2021/05/16 00:10:20;;;;;;;;;;;22.80;43.30;;;;;;1482362;78;1171;-57
2021/05/16 00:12:22;;;;;;;;;;;22.80;43.20;;;;;;1475923;78;751;-57
2021/05/16 00:14:24;;;;;;;;;;;22.70;43.20;;;;;;1478550;78;846;-58
2021/05/16 00:16:26;;;;;;;;;;;22.70;43.30;;;;;;1520985;77;774;-57
2021/05/16 00:18:28;;;;;;;;;;;22.80;43.20;;;;;;1517834;77;753;-58
2021/05/16 00:20:30;;;;;;;;;;;22.80;43.10;;;;;;1489590;78;1157;-59
2021/05/16 00:22:32;;;;;;;;;;;22.70;43.10;;;;;;1495368;78;1946;-58
2021/05/16 00:24:34;;;;;;;;;;;22.70;43.20;;;;;;1489414;78;707;-58
2021/05/16 00:26:36;;;;;;;;;;;22.70;43.20;;;;;;1483218;78;709;-57
2021/05/16 00:28:39;;;;;;;;;;;22.80;43.30;;;;;;1486892;78;731;-59
2021/05/16 00:30:41;;;;;;;;;;;22.70;43.40;;;;;;1496995;78;1119;-58
2021/05/16 00:32:43;;;;;;;;;;;22.70;43.50;;;;;;1493497;78;809;-57
2021/05/16 00:34:44;;;;;;;;;;;22.70;43.50;;;;;;1494752;78;875;-57
2021/05/16 00:36:46;;;;;;;;;;;22.80;43.40;;;;;;1525149;77;712;-56
2021/05/16 00:38:48;;;;;;;;;;;22.80;43.40;;;;;;1516461;77;852;-59
2021/05/16 00:40:50;;;;;;;;;;;22.80;43.50;;;;;;1515306;77;1165;-58
2021/05/16 00:42:52;;;;;;;;;;;22.70;43.50;;;;;;1514813;77;1913;-57
2021/05/16 00:45:07;;;;;;;;;;;22.70;43.50;;;;;;1503153;78;719;-59
2021/05/16 00:47:09;;;;;;;;;;;22.80;43.60;;;;;;1487839;78;718;-59
2021/05/16 00:49:11;;;;;;;;;;;22.70;43.70;;;;;;1526311;76;742;-59
2021/05/16 00:51:13;;;;;;;;;;;22.70;43.80;;;;;;1519385;77;1074;-59
2021/05/16 00:53:15;;;;;;;;;;;22.80;43.90;;;;;;1526220;76;734;-60
2021/05/16 00:55:17;;;;;;;;;;;22.80;43.90;;;;;;1501106;78;1313;-60
2021/05/16 00:57:19;;;;;;;;;;;22.80;43.90;;;;;;1492507;78;708;-59
2021/05/16 00:59:21;;;;;;;;;;;22.80;43.90;;;;;;1493609;78;805;-57
2021/05/16 01:01:24;;;;;;;;;;;22.80;43.90;;;;;;1500758;77;1102;-59
2021/05/16 01:03:27;;;;;;;;;;;22.70;43.90;;;;;;1493314;78;1930;-58
2021/05/16 01:05:29;;;;;;;;;;;22.80;44.00;;;;;;1497891;78;770;-59
2021/05/16 01:07:31;;;;;;;;;;;22.70;43.90;;;;;;1525586;76;784;-59
2021/05/16 01:09:33;;;;;;;;;;;22.90;44.10;;;;;;1480407;78;1133;-58
2021/05/16 01:11:35;;;;;;;;;;;22.80;44.00;;;;;;1474483;78;722;-58
2021/05/16 01:13:37;;;;;;;;;;;22.80;44.00;;;;;;1486785;78;1138;-59
2021/05/16 01:15:39;;;;;;;;;;;22.80;43.90;;;;;;1484153;79;783;-59
2021/05/16 01:17:42;;;;;;;;;;;22.90;44.00;;;;;;1487859;78;732;-58
2021/05/16 01:19:43;;;;;;;;;;;22.90;44.00;;;;;;1486291;78;1136;-57
2021/05/16 01:21:45;;;;;;;;;;;22.90;43.90;;;;;;1520026;77;937;-59
2021/05/16 01:23:48;;;;;;;;;;;22.90;44.00;;;;;;1494411;78;1938;-59
2021/05/16 01:25:50;;;;;;;;;;;22.90;44.00;;;;;;1495555;78;780;-57
2021/05/16 01:27:52;;;;;;;;;;;22.90;44.10;;;;;;1521510;77;803;-59
2021/05/16 01:29:54;;;;;;;;;;;22.80;43.90;;;;;;1523114;76;1137;-59
2021/05/16 01:31:56;;;;;;;;;;;22.90;44.10;;;;;;1522680;77;877;-60
2021/05/16 01:33:57;;;;;;;;;;;22.90;44.00;;;;;;1520913;77;762;-60
2021/05/16 01:35:59;;;;;;;;;;;22.90;44.00;;;;;;1520016;76;752;-59
2021/05/16 01:38:02;;;;;;;;;;;22.90;43.90;;;;;;1524211;77;758;-59
2021/05/16 01:40:04;;;;;;;;;;;23.00;43.90;;;;;;1479545;79;1196;-58
2021/05/16 01:42:07;;;;;;;;;;;22.90;43.90;;;;;;1523774;76;753;-60
2021/05/16 01:44:11;;;;;;;;;;;22.90;43.90;;;;;;1522232;76;1929;-58
2021/05/16 01:46:14;;;;;;;;;;;23.00;43.90;;;;;;1513436;77;1179;-59
2021/05/16 01:48:16;;;;;;;;;;;22.90;43.90;;;;;;1493467;78;731;-57
2021/05/16 01:50:18;;;;;;;;;;;22.90;43.90;;;;;;1492268;78;1154;-57
2021/05/16 01:52:20;;;;;;;;;;;22.90;43.90;;;;;;1493938;78;769;-59
2021/05/16 01:54:22;;;;;;;;;;;22.90;43.90;;;;;;1480238;79;671;-59
2021/05/16 01:56:25;;;;;;;;;;;22.90;44.00;;;;;;1485187;78;726;-59
2021/05/16 01:58:27;;;;;;;;;;;23.00;44.00;;;;;;1474985;78;715;-59
2021/05/16 02:00:30;;;;;;;;;;;22.80;43.70;;;;;;1480794;78;1101;-58
2021/05/16 02:02:32;;;;;;;;;;;22.80;43.60;;;;;;1485208;78;784;-58
2021/05/16 02:04:34;;;;;;;;;;;22.80;43.60;;;;;;1484361;78;1951;-58
2021/05/16 02:06:36;;;;;;;;;;;22.80;43.40;;;;;;1517371;77;638;-59
2021/05/16 02:08:38;;;;;;;;;;;22.90;43.40;;;;;;1515787;77;665;-58
2021/05/16 02:10:40;;;;;;;;;;;22.90;43.10;;;;;;1489948;77;1125;-59
2021/05/16 02:12:42;;;;;;;;;;;23.00;42.80;;;;;;1529984;75;218551;-71
2021/05/16 02:14:45;;;;;;;;;;;23.00;42.60;;;;;;1584807;74;705;-74
2021/05/16 02:16:47;;;;;;;;;;;23.00;42.30;;;;;;1551582;76;693;-71
2021/05/16 02:18:49;;;;;;;;;;;23.00;42.20;;;;;;1550185;76;795;-72
2021/05/16 02:20:51;;;;;;;;;;;23.00;42.10;;;;;;1549945;76;734;-71
2021/05/16 02:22:53;;;;;;;;;;;23.10;42.20;;;;;;1551719;76;1130;-74
2021/05/16 02:24:55;;;;;;;;;;;23.00;41.80;;;;;;1552825;75;1912;-71
2021/05/16 02:27:00;;;;;;;;;;;23.00;41.80;;;;;;1578693;73;886;-71
2021/05/16 02:29:03;;;;;;;;;;;23.10;41.90;;;;;;1576308;73;910;-70
2021/05/16 02:31:06;;;;;;;;;;;23.00;41.90;;;;;;1554866;75;718;-70
2021/05/16 02:33:08;;;;;;;;;;;22.90;41.90;;;;;;1565541;75;1106;-71
2021/05/16 02:35:11;;;;;;;;;;;22.90;41.90;;;;;;1550827;76;732;-71
2021/05/16 02:37:13;;;;;;;;;;;22.90;41.70;;;;;;1568959;75;740;-71
2021/05/16 02:39:15;;;;;;;;;;;22.90;41.80;;;;;;1553366;75;764;-71
2021/05/16 02:41:17;;;;;;;;;;;22.90;41.70;;;;;;1554109;75;1185;-70
2021/05/16 02:43:18;;;;;;;;;;;22.90;41.80;;;;;;1546451;75;851;-70
2021/05/16 02:45:20;;;;;;;;;;;22.90;41.80;;;;;;1578368;73;838;-69
2021/05/16 02:47:22;;;;;;;;;;;22.90;41.60;;;;;;1575951;75;787;-74
2021/05/16 02:49:24;;;;;;;;;;;23.00;41.50;;;;;;1553251;75;853;-72
2021/05/16 02:51:26;;;;;;;;;;;23.00;41.50;;;;;;1575188;75;1127;-74
2021/05/16 02:53:28;;;;;;;;;;;23.00;41.70;;;;;;1575717;74;805;-72
2021/05/16 02:55:30;;;;;;;;;;;22.90;41.80;;;;;;1576229;73;753;-70
2021/05/16 02:57:31;;;;;;;;;;;22.90;41.90;;;;;;1576209;73;818;-70
2021/05/16 02:59:33;;;;;;;;;;;22.90;42.10;;;;;;1544070;75;808;-71
2021/05/16 03:01:35;;;;;;;;;;;22.90;42.30;;;;;;1547693;76;1146;-74
2021/05/16 03:03:38;;;;;;;;;;;23.00;42.20;;;;;;1547474;75;1950;-71
2021/05/16 03:05:39;;;;;;;;;;;22.90;42.30;;;;;;1573680;74;767;-73
2021/05/16 03:07:41;;;;;;;;;;;22.90;42.40;;;;;;1567349;74;734;-70
2021/05/16 03:09:43;;;;;;;;;;;23.00;42.30;;;;;;1549970;76;782;-71
2021/05/16 03:11:45;;;;;;;;;;;23.00;42.30;;;;;;1547876;76;1134;-73
2021/05/16 03:13:47;;;;;;;;;;;23.00;42.20;;;;;;1548095;75;763;-71
2021/05/16 03:15:49;;;;;;;;;;;23.10;42.40;;;;;;1546327;75;804;-72
2021/05/16 03:17:51;;;;;;;;;;;23.10;42.30;;;;;;1576402;75;666;-71
2021/05/16 03:19:53;;;;;;;;;;;23.00;42.10;;;;;;1578867;74;693;-71
2021/05/16 03:21:54;;;;;;;;;;;23.00;42.10;;;;;;1569359;75;1172;-69
2021/05/16 03:23:56;;;;;;;;;;;23.00;42.10;;;;;;1570272;74;1940;-71
2021/05/16 03:26:01;;;;;;;;;;;22.90;42.40;;;;;;1573876;74;726;-74
2021/05/16 03:28:02;;;;;;;;;;;23.00;42.30;;;;;;1569373;73;1650;-72
2021/05/16 03:30:05;;;;;;;;;;;23.10;42.40;;;;;;1563333;75;721;-69
2021/05/16 03:32:07;;;;;;;;;;;23.00;42.20;;;;;;1567608;75;1081;-73
2021/05/16 03:34:09;;;;;;;;;;;23.10;42.30;;;;;;1545780;75;720;-73
2021/05/16 03:36:10;;;;;;;;;;;23.20;42.00;;;;;;1542436;76;704;-71
2021/05/16 03:38:12;;;;;;;;;;;23.20;42.10;;;;;;1548276;76;732;-70
2021/05/16 03:40:14;;;;;;;;;;;23.20;42.00;;;;;;1552068;75;665;-70
2021/05/16 03:42:16;;;;;;;;;;;23.20;41.90;;;;;;1572380;74;1164;-70
2021/05/16 03:44:18;;;;;;;;;;;23.20;41.80;;;;;;1546376;76;1938;-72
2021/05/16 03:46:20;;;;;;;;;;;23.20;41.80;;;;;;1553766;75;794;-69
2021/05/16 03:48:22;;;;;;;;;;;23.20;41.80;;;;;;1550296;76;791;-70
2021/05/16 03:50:24;;;;;;;;;;;23.20;41.70;;;;;;1538887;76;879;-68
2021/05/16 03:52:26;;;;;;;;;;;23.20;41.60;;;;;;1535237;76;1137;-73
2021/05/16 03:54:27;;;;;;;;;;;23.30;41.70;;;;;;1556988;75;805;-70
2021/05/16 03:56:29;;;;;;;;;;;23.20;41.60;;;;;;1560376;75;766;-70
2021/05/16 03:58:31;;;;;;;;;;;23.30;41.60;;;;;;1545789;75;715;-70
2021/05/16 04:00:33;;;;;;;;;;;23.30;41.70;;;;;;1548577;75;813;-70
2021/05/16 04:02:35;;;;;;;;;;;23.20;41.50;;;;;;1576590;75;1202;-71
2021/05/16 04:04:37;;;;;;;;;;;23.30;41.50;;;;;;1543829;75;1931;-70
2021/05/16 04:06:39;;;;;;;;;;;23.20;41.50;;;;;;1576959;74;807;-72
2021/05/16 04:08:40;;;;;;;;;;;23.30;41.50;;;;;;1579136;74;760;-70
2021/05/16 04:10:42;;;;;;;;;;;23.20;41.50;;;;;;1577650;75;752;-69
2021/05/16 04:12:44;;;;;;;;;;;23.30;41.50;;;;;;1576260;75;1136;-71
2021/05/16 04:14:49;;;;;;;;;;;23.30;41.50;;;;;;1578938;75;813;-70
2021/05/16 04:16:50;;;;;;;;;;;23.20;41.50;;;;;;1577968;74;1667;-70
2021/05/16 04:18:52;;;;;;;;;;;23.20;41.40;;;;;;1571770;74;676;-71
2021/05/16 04:20:54;;;;;;;;;;;23.20;41.60;;;;;;1576779;73;713;-73
2021/05/16 04:22:55;;;;;;;;;;;23.10;41.60;;;;;;1554029;75;1132;-70
2021/05/16 04:24:58;;;;;;;;;;;23.20;41.50;;;;;;1561812;75;1946;-70
2021/05/16 04:27:00;;;;;;;;;;;23.30;41.50;;;;;;1542540;75;865;-73
2021/05/16 04:29:02;;;;;;;;;;;23.20;41.50;;;;;;1548521;75;813;-69
2021/05/16 04:31:03;;;;;;;;;;;23.30;41.50;;;;;;1543022;76;724;-69
2021/05/16 04:33:05;;;;;;;;;;;23.10;41.50;;;;;;1562846;75;1125;-69
2021/05/16 04:35:08;;;;;;;;;;;23.20;41.60;;;;;;1563239;75;757;-70
2021/05/16 04:37:09;;;;;;;;;;;23.20;41.50;;;;;;1562784;75;757;-69
2021/05/16 04:39:11;;;;;;;;;;;23.20;41.50;;;;;;1549126;75;705;-69
2021/05/16 04:41:13;;;;;;;;;;;23.20;41.50;;;;;;1580291;75;1123;-72
2021/05/16 04:43:15;;;;;;;;;;;23.20;41.40;;;;;;1575299;75;709;-71
2021/05/16 04:45:17;;;;;;;;;;;23.20;41.50;;;;;;1558154;75;1931;-74
2021/05/16 04:47:19;;;;;;;;;;;23.20;41.40;;;;;;1572871;75;789;-71
2021/05/16 04:49:21;;;;;;;;;;;23.30;41.50;;;;;;1569075;75;821;-71
2021/05/16 04:51:23;;;;;;;;;;;23.20;41.40;;;;;;1565187;75;1141;-72
2021/05/16 04:53:29;;;;;;;;;;;23.20;41.40;;;;;;1576664;75;819;-70
2021/05/16 04:55:28;;;;;;;;;;;23.20;41.30;;;;;;1572772;74;1626;-70
2021/05/16 04:57:30;;;;;;;;;;;23.20;41.30;;;;;;1575731;75;734;-71
2021/05/16 04:59:32;;;;;;;;;;;23.10;41.30;;;;;;1575211;75;805;-71
2021/05/16 05:01:34;;;;;;;;;;;23.10;41.30;;;;;;1571490;75;1093;-70
2021/05/16 05:03:35;;;;;;;;;;;23.20;41.40;;;;;;1564073;74;722;-70
2021/05/16 05:05:37;;;;;;;;;;;23.20;41.30;;;;;;1580396;74;1938;-71
2021/05/16 05:07:39;;;;;;;;;;;23.20;41.30;;;;;;1579112;75;700;-72
2021/05/16 05:09:41;;;;;;;;;;;23.10;41.30;;;;;;1573316;74;702;-71
2021/05/16 05:11:43;;;;;;;;;;;23.10;41.50;;;;;;1571720;75;1195;-71
2021/05/16 05:13:45;;;;;;;;;;;23.20;41.50;;;;;;1574761;75;807;-74
2021/05/16 05:15:47;;;;;;;;;;;23.10;41.50;;;;;;1577808;74;825;-70
2021/05/16 05:17:48;;;;;;;;;;;23.10;41.50;;;;;;1560710;74;749;-70
2021/05/16 05:19:50;;;;;;;;;;;23.10;41.60;;;;;;1560483;74;801;-70
2021/05/16 05:21:52;;;;;;;;;;;23.10;41.50;;;;;;1560577;74;1187;-70
2021/05/16 05:23:54;;;;;;;;;;;23.20;41.40;;;;;;1563231;75;777;-71
2021/05/16 05:25:59;;;;;;;;;;;23.20;41.50;;;;;;1556534;74;1947;-71
2021/05/16 05:28:01;;;;;;;;;;;23.20;41.50;;;;;;1554442;75;890;-70
2021/05/16 05:30:04;;;;;;;;;;;23.20;41.50;;;;;;1556875;75;749;-71
2021/05/16 05:32:06;;;;;;;;;;;23.20;41.50;;;;;;1560631;75;1148;-71
2021/05/16 05:34:08;;;;;;;;;;;23.20;41.50;;;;;;1558489;74;772;-73
2021/05/16 05:36:11;;;;;;;;;;;23.30;41.50;;;;;;1564397;75;743;-67
2021/05/16 05:38:13;;;;;;;;;;;23.10;41.60;;;;;;1559411;75;803;-68
2021/05/16 05:40:15;;;;;;;;;;;23.10;41.80;;;;;;1563824;75;729;-67
2021/05/16 05:42:17;;;;;;;;;;;23.10;41.80;;;;;;1563914;74;1160;-69
2021/05/16 05:44:19;;;;;;;;;;;23.20;41.60;;;;;;1560502;75;742;-74
2021/05/16 05:46:21;;;;;;;;;;;23.20;41.60;;;;;;1562645;75;1947;-72
2021/05/16 05:48:23;;;;;;;;;;;23.30;41.60;;;;;;1565991;74;855;-72
2021/05/16 05:50:25;;;;;;;;;;;23.30;41.70;;;;;;1563918;75;758;-67
2021/05/16 05:52:26;;;;;;;;;;;23.30;41.70;;;;;;1561980;75;1142;-70
2021/05/16 05:54:28;;;;;;;;;;;23.30;41.90;;;;;;1567109;75;718;-72
2021/05/16 05:56:30;;;;;;;;;;;23.20;41.70;;;;;;1561442;74;735;-69
2021/05/16 05:58:35;;;;;;;;;;;23.20;41.60;;;;;;1559216;75;702;-70
2021/05/16 06:00:36;;;;;;;;;;;23.20;41.40;;;;;;1558878;75;1665;-73
2021/05/16 06:02:38;;;;;;;;;;;23.20;41.20;;;;;;1555125;75;1140;-69
2021/05/16 06:04:39;;;;;;;;;;;23.20;41.10;;;;;;1562574;75;1914;-71
2021/05/16 06:06:41;;;;;;;;;;;23.20;41.00;;;;;;1529799;77;735;-69
2021/05/16 06:08:43;;;;;;;;;;;23.20;41.00;;;;;;1541291;75;844;-70
2021/05/16 06:10:45;;;;;;;;;;;23.20;41.00;;;;;;1555051;75;813;-69
2021/05/16 06:12:47;;;;;;;;;;;23.20;41.00;;;;;;1570225;74;1209;-71
2021/05/16 06:14:53;;;;;;;;;;;23.10;41.40;;;;;;1576448;75;788;-72
2021/05/16 06:16:52;;;;;;;;;;;23.10;41.80;;;;;;1568733;75;1709;-70
2021/05/16 06:18:56;;;;;;;;;;;23.00;42.30;;;;;;1569647;75;792;-69
2021/05/16 06:20:58;;;;;;;;;;;23.00;42.20;;;;;;1565679;75;810;-68
2021/05/16 06:23:02;;;;;;;;;;;22.90;42.30;;;;;;1574413;74;1092;-69
2021/05/16 06:25:04;;;;;;;;;;;23.00;42.20;;;;;;1578619;75;1917;-68
2021/05/16 06:27:06;;;;;;;;;;;23.00;42.00;;;;;;1573759;74;900;-70
2021/05/16 06:29:08;;;;;;;;;;;23.00;41.70;;;;;;1573066;74;721;-70
2021/05/16 06:31:11;;;;;;;;;;;22.90;41.80;;;;;;1575111;74;670;-70
2021/05/16 06:33:13;;;;;;;;;;;22.90;42.00;;;;;;1579741;74;636;-72
2021/05/16 06:35:15;;;;;;;;;;;22.90;41.80;;;;;;1576148;74;814;-69
2021/05/16 06:37:17;;;;;;;;;;;22.90;42.00;;;;;;1556181;76;773;-68
2021/05/16 06:39:19;;;;;;;;;;;22.90;41.80;;;;;;1551783;75;769;-69
2021/05/16 06:41:24;;;;;;;;;;;22.90;41.60;;;;;;1549957;75;1141;-69
2021/05/16 06:43:26;;;;;;;;;;;22.90;41.70;;;;;;1572901;75;756;-68
2021/05/16 06:45:28;;;;;;;;;;;22.80;41.80;;;;;;1547425;75;1944;-68
2021/05/16 06:47:30;;;;;;;;;;;22.80;41.80;;;;;;1550742;75;799;-69
2021/05/16 06:49:31;;;;;;;;;;;22.80;41.80;;;;;;1574600;75;804;-67
2021/05/16 06:51:35;;;;;;;;;;;22.80;41.80;;;;;;1535749;77;1169;-68
2021/05/16 06:53:37;;;;;;;;;;;22.90;41.60;;;;;;1536600;77;678;-69
2021/05/16 06:55:39;;;;;;;;;;;22.90;41.70;;;;;;1557651;74;787;-73
2021/05/16 06:57:42;;;;;;;;;;;22.80;42.00;;;;;;1558513;74;776;-69
2021/05/16 06:59:45;;;;;;;;;;;22.80;42.40;;;;;;1555708;75;838;-70
2021/05/16 07:01:47;;;;;;;;;;;22.80;42.70;;;;;;1559147;75;1094;-73
2021/05/16 07:03:49;;;;;;;;;;;22.80;42.90;;;;;;1559107;75;765;-69
2021/05/16 07:05:50;;;;;;;;;;;22.80;43.10;;;;;;1559478;76;1899;-69
2021/05/16 07:07:52;;;;;;;;;;;22.70;43.50;;;;;;1560342;75;869;-68
2021/05/16 07:09:54;;;;;;;;;;;22.70;43.60;;;;;;1556231;75;743;-69
2021/05/16 07:11:56;;;;;;;;;;;22.80;43.40;;;;;;1558478;76;1207;-70
2021/05/16 07:13:58;;;;;;;;;;;22.80;43.10;;;;;;1559961;75;749;-72
2021/05/16 07:16:00;;;;;;;;;;;23.00;42.80;;;;;;1560102;74;774;-72
2021/05/16 07:18:02;;;;;;;;;;;22.90;42.50;;;;;;1555813;75;777;-69
2021/05/16 07:20:04;;;;;;;;;;;22.90;42.60;;;;;;1560001;75;754;-70
2021/05/16 07:22:06;;;;;;;;;;;23.10;42.30;;;;;;1559528;75;1173;-72
2021/05/16 07:24:08;;;;;;;;;;;23.10;41.80;;;;;;1554649;75;726;-68
2021/05/16 07:26:10;;;;;;;;;;;23.10;41.50;;;;;;1554405;75;1919;-69
2021/05/16 07:28:12;;;;;;;;;;;23.10;41.00;;;;;;1561335;75;761;-69
2021/05/16 07:30:14;;;;;;;;;;;23.10;40.60;;;;;;1559928;75;737;-68
2021/05/16 07:32:16;;;;;;;;;;;23.10;40.20;;;;;;1557685;75;1159;-69
2021/05/16 07:34:19;;;;;;;;;;;23.10;39.90;;;;;;1558187;74;765;-68
2021/05/16 07:36:21;;;;;;;;;;;23.10;39.80;;;;;;1558910;75;754;-68
2021/05/16 07:38:23;;;;;;;;;;;23.00;39.50;;;;;;1559491;74;740;-68
2021/05/16 07:40:25;;;;;;;;;;;23.10;39.60;;;;;;1560631;76;721;-69
2021/05/16 07:42:27;;;;;;;;;;;23.00;39.30;;;;;;1558230;75;1141;-68
2021/05/16 07:44:29;;;;;;;;;;;23.00;39.10;;;;;;1557179;75;795;-69
2021/05/16 07:46:31;;;;;;;;;;;23.00;39.00;;;;;;1558135;75;1935;-68
2021/05/16 07:48:32;;;;;;;;;;;23.00;38.70;;;;;;1532258;76;707;-70
2021/05/16 07:50:35;;;;;;;;;;;23.00;38.80;;;;;;1612795;72;783;-70
2021/05/16 07:52:37;;;;;;;;;;;23.00;38.70;;;;;;1613895;73;1140;-69
2021/05/16 07:54:39;;;;;;;;;;;23.00;38.20;;;;;;1612478;72;799;-67
2021/05/16 07:56:41;;;;;;;;;;;23.00;38.10;;;;;;1610359;72;721;-70
2021/05/16 07:58:43;;;;;;;;;;;22.90;37.80;;;;;;1610913;73;708;-69
2021/05/16 08:00:45;;;;;;;;;;;23.00;37.90;;;;;;1612408;73;743;-70
2021/05/16 08:02:47;;;;;;;;;;;22.90;37.90;;;;;;1612368;73;1138;-69
2021/05/16 08:04:48;;;;;;;;;;;22.90;37.90;;;;;;1614116;73;803;-68
2021/05/16 08:06:50;;;;;;;;;;;23.00;37.70;;;;;;1613309;73;1950;-68
2021/05/16 08:08:52;;;;;;;;;;;22.90;37.90;;;;;;1608432;73;758;-68
2021/05/16 08:10:54;;;;;;;;;;;23.00;37.90;;;;;;1606845;73;717;-68
2021/05/16 08:12:56;;;;;;;;;;;23.00;37.80;;;;;;1591347;72;3163;-67
2021/05/16 08:14:58;;;;;;;;;;;23.00;37.60;;;;;;1591584;74;806;-68
2021/05/16 08:17:01;;;;;;;;;;;23.00;37.30;;;;;;1541403;76;791;-68
2021/05/16 08:19:03;;;;;;;;;;;22.90;37.30;;;;;;1568162;75;839;-67
2021/05/16 08:21:05;;;;;;;;;;;23.00;37.20;;;;;;1571546;74;745;-67
2021/05/16 08:23:06;;;;;;;;;;;22.90;37.30;;;;;;1548909;74;1210;-67
2021/05/16 08:25:09;;;;;;;;;;;22.90;37.20;;;;;;1551860;75;821;-69
2021/05/16 08:27:11;;;;;;;;;;;23.00;37.20;;;;;;1555867;75;1908;-68
2021/05/16 08:29:13;;;;;;;;;;;23.00;37.20;;;;;;1549336;75;726;-67
2021/05/16 08:31:15;;;;;;;;;;;23.00;37.30;;;;;;1545029;75;730;-69
2021/05/16 08:33:17;;;;;;;;;;;23.00;37.30;;;;;;1544824;75;1123;-68
2021/05/16 08:35:19;;;;;;;;;;;23.00;37.40;;;;;;1521743;76;748;-68
2021/05/16 08:37:20;;;;;;;;;;;23.00;37.40;;;;;;1527665;76;731;-67
2021/05/16 08:39:22;;;;;;;;;;;23.00;37.60;;;;;;1521547;76;787;-67
2021/05/16 08:41:24;;;;;;;;;;;23.00;37.60;;;;;;1545819;75;735;-68
2021/05/16 08:43:26;;;;;;;;;;;23.00;37.60;;;;;;1500460;77;1092;-65
2021/05/16 08:45:28;;;;;;;;;;;23.10;37.80;;;;;;1511487;77;748;-67
2021/05/16 08:47:30;;;;;;;;;;;23.00;37.70;;;;;;1519720;77;1941;-67
2021/05/16 08:49:32;;;;;;;;;;;23.00;37.80;;;;;;1509741;77;799;-69
2021/05/16 08:51:34;;;;;;;;;;;23.00;37.80;;;;;;1515066;76;1168;-67
2021/05/16 08:53:36;;;;;;;;;;;23.00;37.90;;;;;;1525516;76;747;-68
2021/05/16 08:55:38;;;;;;;;;;;23.10;38.10;;;;;;1524169;76;756;-68
2021/05/16 08:57:40;;;;;;;;;;;23.10;38.20;;;;;;1539764;76;842;-67
2021/05/16 09:00:00;;;;;;;;;;;23.10;38.30;;;;;;1530132;76;778;-67
2021/05/16 09:02:02;;;;;;;;;;;23.00;38.10;;;;;;1537725;76;1146;-67
2021/05/16 09:04:24;;;;;;;;;;;23.10;38.40;;;;;;1532319;76;814;-67
2021/05/16 09:06:35;;;;;;;;;;;23.10;38.40;;;;;;1529127;76;1928;-70
2021/05/16 09:08:36;;;;;;;;;;;23.10;38.50;;;;;;1526895;76;772;-67
2021/05/16 09:10:40;;;;;;;;;;;23.10;38.60;;;;;;1527945;76;829;-67
2021/05/16 09:12:42;;;;;;;;;;;23.10;38.60;;;;;;1531569;76;1862;-67
2021/05/16 09:14:48;;;;;;;;;;;23.10;38.60;;;;;;1536596;76;882;-67
2021/05/16 09:16:50;;;;;;;;;;;23.10;38.60;;;;;;1540686;76;776;-71
2021/05/16 09:18:53;;;;;;;;;;;23.10;38.70;;;;;;1537834;76;707;-68
2021/05/16 09:20:55;;;;;;;;;;;23.00;38.60;;;;;;1537338;76;682;-65
2021/05/16 09:22:57;;;;;;;;;;;23.10;38.80;;;;;;1541495;76;1123;-67
2021/05/16 09:25:09;;;;;;;;;;;23.10;38.80;;;;;;1547308;76;781;-68
2021/05/16 09:27:11;;;;;;;;;;;23.10;38.80;;;;;;1531329;76;1921;-67
2021/05/16 09:29:20;;;;;;;;;;;23.00;38.70;;;;;;1500409;77;678;-68
2021/05/16 09:31:35;;;;;;;;;;;23.00;38.90;;;;;;1543431;76;847;-67
2021/05/16 09:33:37;;;;;;;;;;;23.10;39.10;;;;;;1531406;76;782;-67
2021/05/16 09:35:43;;;;;;;;;;;23.00;38.80;;;;;;1522823;76;782;-68
2021/05/16 09:37:56;;;;;;;;;;;23.00;38.90;;;;;;1526675;76;2005;-67
2021/05/16 09:39:58;;;;;;;;;;;23.00;39.10;;;;;;1470929;77;1026;-67
2021/05/16 09:42:01;;;;;;;;;;;23.00;39.20;;;;;;1494789;77;1172;-66
2021/05/16 09:44:03;;;;;;;;;;;23.00;39.20;;;;;;1519913;76;1865;-67
2021/05/16 09:46:06;;;;;;;;;;;23.00;39.10;;;;;;1530488;76;1939;-69
2021/05/16 09:48:18;;;;;;;;;;;23.10;39.20;;;;;;1522964;76;727;-68
2021/05/16 09:50:20;;;;;;;;;;;23.10;39.20;;;;;;1530698;76;925;-67
2021/05/16 09:52:29;;;;;;;;;;;23.00;39.00;;;;;;1528619;76;1179;-67
2021/05/16 09:54:31;;;;;;;;;;;23.00;38.90;;;;;;1531021;76;791;-67
2021/05/16 09:56:33;;;;;;;;;;;23.10;39.20;;;;;;1535698;76;816;-67
2021/05/16 09:58:35;;;;;;;;;;;23.10;39.20;;;;;;1528992;76;965;-67
2021/05/16 10:00:37;;;;;;;;;;;23.10;39.20;;;;;;1528408;76;780;-66
2021/05/16 10:02:39;;;;;;;;;;;23.10;39.20;;;;;;1540626;76;1145;-66
2021/05/16 10:04:41;;;;;;;;;;;23.10;39.20;;;;;;1528023;76;794;-67
2021/05/16 10:06:42;;;;;;;;;;;23.10;39.10;;;;;;1533757;76;1932;-69
2021/05/16 10:08:48;;;;;;;;;;;23.10;39.40;;;;;;1529063;76;814;-67
2021/05/16 10:10:48;;;;;;;;;;;23.10;39.40;;;;;;1526487;76;1645;-66
2021/05/16 10:12:50;;;;;;;;;;;23.00;39.20;;;;;;1521371;76;1142;-63
2021/05/16 10:15:02;;;;;;;;;;;22.90;39.70;;;;;;1529756;76;809;-67
2021/05/16 10:17:03;;;;;;;;;;;22.90;41.80;;;;;;1537829;76;810;-67
2021/05/16 10:19:05;;;;;;;;;;;23.10;42.00;;;;;;1534445;76;724;-69
2021/05/16 10:21:07;;;;;;;;;;;23.10;42.30;;;;;;1524126;76;752;-66
2021/05/16 10:23:11;;;;;;;;;;;23.30;42.80;;;;;;1533154;76;1204;-67
2021/05/16 10:25:12;;;;;;;;;;;23.20;42.90;;;;;;1529259;76;793;-66
2021/05/16 10:27:16;;;;;;;;;;;23.20;42.80;;;;;;1521956;76;1923;-70
2021/05/16 10:29:20;;;;;;;;;;;23.30;42.60;;;;;;1522538;76;1906;-68
2021/05/16 10:31:40;;;;;;;;;;;23.20;42.40;;;;;;1532821;76;1673;-67
2021/05/16 10:33:42;;;;;;;;;;;23.40;42.50;;;;;;1523157;76;793;-67
2021/05/16 10:35:50;;;;;;;;;;;23.20;42.10;;;;;;1531065;76;711;-66
2021/05/16 10:37:53;;;;;;;;;;;23.30;42.20;;;;;;1534016;76;760;-67
2021/05/16 10:39:55;;;;;;;;;;;23.30;42.00;;;;;;1534465;76;708;-67
2021/05/16 10:42:16;;;;;;;;;;;23.30;41.80;;;;;;1524062;76;1185;-67
2021/05/16 10:44:30;;;;;;;;;;;23.40;41.70;;;;;;1530984;76;711;-67
2021/05/16 10:46:42;;;;;;;;;;;23.30;41.70;;;;;;1527371;76;1937;-66
2021/05/16 10:48:43;;;;;;;;;;;23.30;41.60;;;;;;1529748;76;1659;-67
2021/05/16 10:50:50;;;;;;;;;;;23.40;41.50;;;;;;1534052;76;878;-68
2021/05/16 10:53:02;;;;;;;;;;;23.30;41.50;;;;;;1528072;76;1228;-67
2021/05/16 10:55:05;;;;;;;;;;;23.40;41.30;;;;;;1535184;76;800;-67
2021/05/16 10:57:14;;;;;;;;;;;23.40;41.20;;;;;;1535028;76;736;-67
2021/05/16 10:59:17;;;;;;;;;;;23.40;41.10;;;;;;1525656;76;791;-68
2021/05/16 11:01:20;;;;;;;;;;;23.40;41.10;;;;;;1531757;76;1466;-67
2021/05/16 11:03:23;;;;;;;;;;;23.40;41.00;;;;;;1533459;76;2031;-67
2021/05/16 11:05:47;;;;;;;;;;;23.40;41.00;;;;;;1500358;77;1179;-67
2021/05/16 11:07:48;;;;;;;;;;;23.40;40.70;;;;;;1536381;76;1920;-67
2021/05/16 11:09:50;;;;;;;;;;;23.40;40.60;;;;;;1537979;76;780;-67
2021/05/16 11:11:54;;;;;;;;;;;23.40;40.50;;;;;;1504434;77;1146;-67
2021/05/16 11:13:56;;;;;;;;;;;23.40;40.20;;;;;;1532150;75;769;-67
2021/05/16 11:16:04;;;;;;;;;;;23.40;40.20;;;;;;1529787;75;698;-67
2021/05/16 11:18:09;;;;;;;;;;;23.30;40.10;;;;;;1529317;75;696;-67
2021/05/16 11:20:12;;;;;;;;;;;23.40;40.10;;;;;;1530393;75;727;-67
2021/05/16 11:22:17;;;;;;;;;;;23.40;39.80;;;;;;1545002;75;1162;-67
2021/05/16 11:24:39;;;;;;;;;;;23.30;39.70;;;;;;1529103;75;868;-67
2021/05/16 11:26:41;;;;;;;;;;;23.30;39.50;;;;;;1528393;76;1932;-67
2021/05/16 11:28:46;;;;;;;;;;;23.30;39.60;;;;;;1544669;76;774;-67
2021/05/16 11:30:49;;;;;;;;;;;23.30;39.40;;;;;;1517098;77;1195;-68
2021/05/16 11:32:51;;;;;;;;;;;23.30;39.40;;;;;;1541052;75;1177;-67
2021/05/16 11:35:06;;;;;;;;;;;23.30;39.30;;;;;;1545176;76;841;-67
2021/05/16 11:37:16;;;;;;;;;;;23.30;39.20;;;;;;1537846;75;689;-67
2021/05/16 11:39:20;;;;;;;;;;;23.20;38.90;;;;;;1533178;75;1572;-69
2021/05/16 11:41:25;;;;;;;;;;;23.30;39.20;;;;;;1547766;76;726;-67
2021/05/16 11:43:34;;;;;;;;;;;23.20;39.00;;;;;;1545895;75;1155;-67
2021/05/16 11:45:37;;;;;;;;;;;23.20;39.00;;;;;;1537415;76;693;-65
2021/05/16 11:47:42;;;;;;;;;;;23.30;39.30;;;;;;1548025;76;1940;-69
2021/05/16 11:49:46;;;;;;;;;;;23.30;39.30;;;;;;1542489;76;735;-67
2021/05/16 11:51:48;;;;;;;;;;;23.30;39.30;;;;;;1545816;74;2379;-66
2021/05/16 11:53:54;;;;;;;;;;;23.30;39.20;;;;;;1530322;76;721;-68
2021/05/16 11:55:56;;;;;;;;;;;23.30;39.10;;;;;;1528487;76;741;-68
2021/05/16 11:57:58;;;;;;;;;;;23.30;39.10;;;;;;1536450;75;782;-68
2021/05/16 12:00:00;;;;;;;;;;;23.30;39.10;;;;;;1534821;75;824;-69
2021/05/16 12:02:04;;;;;;;;;;;23.30;39.10;;;;;;1538053;75;1176;-70
2021/05/16 12:04:08;;;;;;;;;;;23.40;39.10;;;;;;1538075;76;801;-68
2021/05/16 12:06:10;;;;;;;;;;;23.30;39.00;;;;;;1531286;76;934;-68
2021/05/16 12:08:14;;;;;;;;;;;23.20;39.20;;;;;;1529869;76;1959;-68
2021/05/16 12:10:19;;;;;;;;;;;23.30;39.40;;;;;;1535169;76;1095;-65
2021/05/16 12:12:21;;;;;;;;;;;23.30;39.20;;;;;;1541185;75;1240;-67